sensor_id;sensor_type;location;lat;lon;timestamp;P1;durP1;ratioP1;P2;durP2;ratioP2
53263;SDS011;39153;52.680;6.172;2022-10-31T00:02:24;21.65;;;10.13;;
53263;SDS011;39153;52.680;6.172;2022-10-31T00:04:50;14.93;;;10.13;;
53263;SDS011;39153;52.680;6.172;2022-10-31T00:07:16;17.63;;;12.18;;
53263;SDS011;39153;52.680;6.172;2022-10-31T00:09:41;17.95;;;10.30;;
53263;SDS011;39153;52.680;6.172;2022-10-31T00:12:07;16.10;;;10.10;;
53263;SDS011;39153;52.680;6.172;2022-10-31T00:14:33;19.65;;;11.10;;
53263;SDS011;39153;52.680;6.172;2022-10-31T00:16:58;17.60;;;10.85;;
53263;SDS011;39153;52.680;6.172;2022-10-31T00:19:24;19.40;;;11.27;;
53263;SDS011;39153;52.680;6.172;2022-10-31T00:21:51;21.17;;;12.30;;
53263;SDS011;39153;52.680;6.172;2022-10-31T00:24:17;18.25;;;11.55;;
53263;SDS011;39153;52.680;6.172;2022-10-31T00:26:42;23.50;;;14.07;;
53263;SDS011;39153;52.680;6.172;2022-10-31T00:29:08;16.08;;;10.35;;
53263;SDS011;39153;52.680;6.172;2022-10-31T00:31:35;16.65;;;11.27;;
53263;SDS011;39153;52.680;6.172;2022-10-31T00:34:00;16.77;;;10.50;;
53263;SDS011;39153;52.680;6.172;2022-10-31T00:36:28;16.73;;;10.20;;
53263;SDS011;39153;52.680;6.172;2022-10-31T00:38:53;16.13;;;10.45;;
53263;SDS011;39153;52.680;6.172;2022-10-31T00:41:19;15.05;;;8.73;;
53263;SDS011;39153;52.680;6.172;2022-10-31T00:43:45;16.63;;;9.30;;
53263;SDS011;39153;52.680;6.172;2022-10-31T00:46:11;16.13;;;10.35;;
53263;SDS011;39153;52.680;6.172;2022-10-31T00:48:37;17.17;;;8.98;;
53263;SDS011;39153;52.680;6.172;2022-10-31T00:51:03;17.45;;;9.07;;
53263;SDS011;39153;52.680;6.172;2022-10-31T00:53:29;15.93;;;8.70;;
53263;SDS011;39153;52.680;6.172;2022-10-31T00:55:55;14.52;;;8.40;;
53263;SDS011;39153;52.680;6.172;2022-10-31T00:58:20;19.02;;;9.20;;
53263;SDS011;39153;52.680;6.172;2022-10-31T01:00:47;14.30;;;8.77;;
53263;SDS011;39153;52.680;6.172;2022-10-31T01:03:20;14.85;;;8.48;;
53263;SDS011;39153;52.680;6.172;2022-10-31T01:05:54;12.02;;;7.97;;
53263;SDS011;39153;52.680;6.172;2022-10-31T01:08:22;16.02;;;8.48;;
53263;SDS011;39153;52.680;6.172;2022-10-31T01:10:57;13.35;;;9.10;;
53263;SDS011;39153;52.680;6.172;2022-10-31T01:13:33;13.80;;;7.85;;
53263;SDS011;39153;52.680;6.172;2022-10-31T01:15:59;12.80;;;7.50;;
53263;SDS011;39153;52.680;6.172;2022-10-31T01:18:27;12.32;;;7.53;;
53263;SDS011;39153;52.680;6.172;2022-10-31T01:21:06;11.32;;;7.03;;
53263;SDS011;39153;52.680;6.172;2022-10-31T01:23:36;12.63;;;7.47;;
53263;SDS011;39153;52.680;6.172;2022-10-31T01:26:13;10.57;;;7.00;;
53263;SDS011;39153;52.680;6.172;2022-10-31T01:28:43;13.95;;;7.72;;
53263;SDS011;39153;52.680;6.172;2022-10-31T01:31:11;15.45;;;7.45;;
53263;SDS011;39153;52.680;6.172;2022-10-31T01:33:36;11.35;;;7.47;;
53263;SDS011;39153;52.680;6.172;2022-10-31T01:36:12;14.93;;;9.40;;
53263;SDS011;39153;52.680;6.172;2022-10-31T01:38:44;13.05;;;7.35;;
53263;SDS011;39153;52.680;6.172;2022-10-31T01:41:12;15.20;;;7.75;;
53263;SDS011;39153;52.680;6.172;2022-10-31T01:43:43;15.70;;;7.38;;
53263;SDS011;39153;52.680;6.172;2022-10-31T01:46:16;15.85;;;7.85;;
53263;SDS011;39153;52.680;6.172;2022-10-31T01:48:51;13.82;;;7.90;;
53263;SDS011;39153;52.680;6.172;2022-10-31T01:51:19;14.45;;;7.53;;
53263;SDS011;39153;52.680;6.172;2022-10-31T01:53:48;14.50;;;8.85;;
53263;SDS011;39153;52.680;6.172;2022-10-31T01:56:18;11.80;;;7.43;;
53263;SDS011;39153;52.680;6.172;2022-10-31T01:58:44;15.73;;;8.10;;
53263;SDS011;39153;52.680;6.172;2022-10-31T02:01:11;13.85;;;7.95;;
53263;SDS011;39153;52.680;6.172;2022-10-31T02:03:38;14.63;;;7.50;;
53263;SDS011;39153;52.680;6.172;2022-10-31T02:06:05;12.93;;;7.15;;
53263;SDS011;39153;52.680;6.172;2022-10-31T02:08:39;11.65;;;7.75;;
53263;SDS011;39153;52.680;6.172;2022-10-31T02:11:05;12.82;;;7.05;;
53263;SDS011;39153;52.680;6.172;2022-10-31T02:13:33;14.02;;;7.63;;
53263;SDS011;39153;52.680;6.172;2022-10-31T02:15:59;14.65;;;7.88;;
53263;SDS011;39153;52.680;6.172;2022-10-31T02:18:25;15.23;;;7.93;;
53263;SDS011;39153;52.680;6.172;2022-10-31T02:26:27;13.60;;;7.95;;
53263;SDS011;39153;52.680;6.172;2022-10-31T02:34:52;13.65;;;8.35;;
53263;SDS011;39153;52.680;6.172;2022-10-31T02:37:25;15.05;;;8.38;;
53263;SDS011;39153;52.680;6.172;2022-10-31T02:42:45;15.85;;;8.27;;
53263;SDS011;39153;52.680;6.172;2022-10-31T02:45:25;16.48;;;8.73;;
53263;SDS011;39153;52.680;6.172;2022-10-31T02:47:53;16.15;;;9.45;;
53263;SDS011;39153;52.680;6.172;2022-10-31T02:50:31;15.88;;;9.05;;
53263;SDS011;39153;52.680;6.172;2022-10-31T02:53:00;15.88;;;8.73;;
53263;SDS011;39153;52.680;6.172;2022-10-31T02:58:14;14.25;;;9.00;;
53263;SDS011;39153;52.680;6.172;2022-10-31T03:03:23;13.50;;;9.15;;
53263;SDS011;39153;52.680;6.172;2022-10-31T03:05:55;15.05;;;9.77;;
53263;SDS011;39153;52.680;6.172;2022-10-31T03:11:13;17.23;;;10.95;;
53263;SDS011;39153;52.680;6.172;2022-10-31T03:13:49;18.35;;;10.77;;
53263;SDS011;39153;52.680;6.172;2022-10-31T03:16:47;18.55;;;11.32;;
53263;SDS011;39153;52.680;6.172;2022-10-31T03:24:14;19.58;;;11.32;;
53263;SDS011;39153;52.680;6.172;2022-10-31T03:26:48;17.77;;;10.73;;
53263;SDS011;39153;52.680;6.172;2022-10-31T03:29:18;17.13;;;10.65;;
53263;SDS011;39153;52.680;6.172;2022-10-31T03:31:51;20.92;;;10.60;;
53263;SDS011;39153;52.680;6.172;2022-10-31T03:34:22;19.08;;;10.70;;
53263;SDS011;39153;52.680;6.172;2022-10-31T03:36:50;22.80;;;11.35;;
53263;SDS011;39153;52.680;6.172;2022-10-31T03:39:19;19.95;;;10.65;;
53263;SDS011;39153;52.680;6.172;2022-10-31T03:41:49;19.42;;;11.00;;
53263;SDS011;39153;52.680;6.172;2022-10-31T03:44:23;23.95;;;11.13;;
53263;SDS011;39153;52.680;6.172;2022-10-31T03:46:52;16.92;;;12.73;;
53263;SDS011;39153;52.680;6.172;2022-10-31T03:49:18;16.67;;;10.50;;
53263;SDS011;39153;52.680;6.172;2022-10-31T03:51:46;16.08;;;10.90;;
53263;SDS011;39153;52.680;6.172;2022-10-31T04:02:30;18.63;;;10.80;;
53263;SDS011;39153;52.680;6.172;2022-10-31T04:04:57;16.80;;;9.32;;
53263;SDS011;39153;52.680;6.172;2022-10-31T04:07:25;18.00;;;10.07;;
53263;SDS011;39153;52.680;6.172;2022-10-31T04:09:55;17.65;;;10.18;;
53263;SDS011;39153;52.680;6.172;2022-10-31T04:12:22;15.10;;;10.57;;
53263;SDS011;39153;52.680;6.172;2022-10-31T04:14:50;16.25;;;10.20;;
53263;SDS011;39153;52.680;6.172;2022-10-31T04:17:18;19.17;;;9.57;;
53263;SDS011;39153;52.680;6.172;2022-10-31T04:19:47;15.70;;;9.73;;
53263;SDS011;39153;52.680;6.172;2022-10-31T04:22:13;18.55;;;10.00;;
53263;SDS011;39153;52.680;6.172;2022-10-31T04:24:39;14.95;;;9.68;;
53263;SDS011;39153;52.680;6.172;2022-10-31T04:27:05;17.65;;;10.50;;
53263;SDS011;39153;52.680;6.172;2022-10-31T04:29:31;19.67;;;11.52;;
53263;SDS011;39153;52.680;6.172;2022-10-31T04:31:57;21.73;;;11.95;;
53263;SDS011;39153;52.680;6.172;2022-10-31T04:34:23;19.95;;;12.30;;
53263;SDS011;39153;52.680;6.172;2022-10-31T04:36:48;19.05;;;11.38;;
53263;SDS011;39153;52.680;6.172;2022-10-31T04:39:14;19.90;;;11.00;;
53263;SDS011;39153;52.680;6.172;2022-10-31T04:41:40;18.73;;;11.48;;
53263;SDS011;39153;52.680;6.172;2022-10-31T04:44:05;16.60;;;9.80;;
53263;SDS011;39153;52.680;6.172;2022-10-31T04:46:31;18.17;;;10.13;;
53263;SDS011;39153;52.680;6.172;2022-10-31T04:48:57;16.65;;;9.98;;
53263;SDS011;39153;52.680;6.172;2022-10-31T04:51:22;15.60;;;9.77;;
53263;SDS011;39153;52.680;6.172;2022-10-31T04:53:48;15.55;;;10.43;;
53263;SDS011;39153;52.680;6.172;2022-10-31T04:56:14;19.02;;;11.20;;
53263;SDS011;39153;52.680;6.172;2022-10-31T04:58:39;22.52;;;12.25;;
53263;SDS011;39153;52.680;6.172;2022-10-31T05:01:05;22.92;;;13.27;;
53263;SDS011;39153;52.680;6.172;2022-10-31T05:03:31;20.58;;;12.38;;
53263;SDS011;39153;52.680;6.172;2022-10-31T05:05:56;22.25;;;14.32;;
53263;SDS011;39153;52.680;6.172;2022-10-31T05:08:22;21.52;;;13.98;;
53263;SDS011;39153;52.680;6.172;2022-10-31T05:10:48;21.65;;;13.95;;
53263;SDS011;39153;52.680;6.172;2022-10-31T05:13:13;23.05;;;15.10;;
53263;SDS011;39153;52.680;6.172;2022-10-31T05:15:40;20.38;;;13.85;;
53263;SDS011;39153;52.680;6.172;2022-10-31T05:18:06;22.75;;;13.32;;
53263;SDS011;39153;52.680;6.172;2022-10-31T05:20:32;21.48;;;12.55;;
53263;SDS011;39153;52.680;6.172;2022-10-31T05:22:58;18.17;;;12.20;;
53263;SDS011;39153;52.680;6.172;2022-10-31T05:25:25;21.05;;;12.50;;
53263;SDS011;39153;52.680;6.172;2022-10-31T05:27:53;19.70;;;12.18;;
53263;SDS011;39153;52.680;6.172;2022-10-31T05:30:21;18.88;;;12.70;;
53263;SDS011;39153;52.680;6.172;2022-10-31T05:32:49;20.40;;;12.70;;
53263;SDS011;39153;52.680;6.172;2022-10-31T05:35:16;19.90;;;11.50;;
53263;SDS011;39153;52.680;6.172;2022-10-31T05:37:44;18.88;;;11.80;;
53263;SDS011;39153;52.680;6.172;2022-10-31T05:40:11;22.15;;;14.85;;
53263;SDS011;39153;52.680;6.172;2022-10-31T05:42:38;19.23;;;12.10;;
53263;SDS011;39153;52.680;6.172;2022-10-31T05:45:05;17.30;;;12.63;;
53263;SDS011;39153;52.680;6.172;2022-10-31T05:47:36;19.27;;;11.88;;
53263;SDS011;39153;52.680;6.172;2022-10-31T05:50:02;18.95;;;12.60;;
53263;SDS011;39153;52.680;6.172;2022-10-31T05:52:28;18.05;;;11.70;;
53263;SDS011;39153;52.680;6.172;2022-10-31T05:54:54;19.83;;;12.75;;
53263;SDS011;39153;52.680;6.172;2022-10-31T05:57:19;21.85;;;13.90;;
53263;SDS011;39153;52.680;6.172;2022-10-31T05:59:45;21.02;;;13.45;;
53263;SDS011;39153;52.680;6.172;2022-10-31T06:02:11;20.38;;;13.65;;
53263;SDS011;39153;52.680;6.172;2022-10-31T06:04:36;23.00;;;14.80;;
53263;SDS011;39153;52.680;6.172;2022-10-31T06:07:02;19.02;;;13.65;;
53263;SDS011;39153;52.680;6.172;2022-10-31T06:09:28;24.45;;;15.57;;
53263;SDS011;39153;52.680;6.172;2022-10-31T06:11:53;25.23;;;16.58;;
53263;SDS011;39153;52.680;6.172;2022-10-31T06:14:19;23.23;;;16.17;;
53263;SDS011;39153;52.680;6.172;2022-10-31T06:16:44;24.23;;;16.17;;
53263;SDS011;39153;52.680;6.172;2022-10-31T06:19:10;20.65;;;14.50;;
53263;SDS011;39153;52.680;6.172;2022-10-31T06:21:36;25.63;;;17.20;;
53263;SDS011;39153;52.680;6.172;2022-10-31T06:24:02;24.48;;;15.32;;
53263;SDS011;39153;52.680;6.172;2022-10-31T06:26:27;26.35;;;15.80;;
53263;SDS011;39153;52.680;6.172;2022-10-31T06:28:53;27.85;;;17.17;;
53263;SDS011;39153;52.680;6.172;2022-10-31T06:31:19;24.20;;;16.45;;
53263;SDS011;39153;52.680;6.172;2022-10-31T06:33:44;24.25;;;15.27;;
53263;SDS011;39153;52.680;6.172;2022-10-31T06:36:10;26.33;;;14.80;;
53263;SDS011;39153;52.680;6.172;2022-10-31T06:38:36;22.10;;;15.55;;
53263;SDS011;39153;52.680;6.172;2022-10-31T06:41:02;22.27;;;13.68;;
53263;SDS011;39153;52.680;6.172;2022-10-31T06:43:29;21.02;;;15.02;;
53263;SDS011;39153;52.680;6.172;2022-10-31T06:45:55;22.10;;;14.93;;
53263;SDS011;39153;52.680;6.172;2022-10-31T06:48:21;22.70;;;15.40;;
53263;SDS011;39153;52.680;6.172;2022-10-31T06:50:46;21.50;;;15.00;;
53263;SDS011;39153;52.680;6.172;2022-10-31T06:53:12;23.92;;;14.57;;
53263;SDS011;39153;52.680;6.172;2022-10-31T06:55:39;22.33;;;14.52;;
53263;SDS011;39153;52.680;6.172;2022-10-31T06:58:05;22.25;;;14.93;;
53263;SDS011;39153;52.680;6.172;2022-10-31T07:00:30;25.33;;;15.30;;
53263;SDS011;39153;52.680;6.172;2022-10-31T07:02:57;23.58;;;15.55;;
53263;SDS011;39153;52.680;6.172;2022-10-31T07:05:25;27.52;;;15.10;;
53263;SDS011;39153;52.680;6.172;2022-10-31T07:07:52;22.92;;;15.00;;
53263;SDS011;39153;52.680;6.172;2022-10-31T07:10:29;26.45;;;16.70;;
53263;SDS011;39153;52.680;6.172;2022-10-31T07:12:56;24.73;;;16.55;;
53263;SDS011;39153;52.680;6.172;2022-10-31T07:15:23;26.00;;;16.65;;
53263;SDS011;39153;52.680;6.172;2022-10-31T07:17:50;32.05;;;17.95;;
53263;SDS011;39153;52.680;6.172;2022-10-31T07:20:15;26.88;;;17.63;;
53263;SDS011;39153;52.680;6.172;2022-10-31T07:22:41;25.45;;;17.15;;
53263;SDS011;39153;52.680;6.172;2022-10-31T07:25:07;23.23;;;16.75;;
53263;SDS011;39153;52.680;6.172;2022-10-31T07:27:40;24.92;;;16.88;;
53263;SDS011;39153;52.680;6.172;2022-10-31T07:30:07;26.55;;;16.95;;
53263;SDS011;39153;52.680;6.172;2022-10-31T07:35:12;25.92;;;16.70;;
53263;SDS011;39153;52.680;6.172;2022-10-31T07:37:39;27.85;;;16.88;;
53263;SDS011;39153;52.680;6.172;2022-10-31T07:40:05;24.08;;;16.35;;
53263;SDS011;39153;52.680;6.172;2022-10-31T07:42:40;29.85;;;17.30;;
53263;SDS011;39153;52.680;6.172;2022-10-31T07:45:08;27.80;;;16.45;;
53263;SDS011;39153;52.680;6.172;2022-10-31T07:47:39;26.20;;;16.50;;
53263;SDS011;39153;52.680;6.172;2022-10-31T07:50:04;27.00;;;17.92;;
53263;SDS011;39153;52.680;6.172;2022-10-31T07:52:31;29.80;;;18.55;;
53263;SDS011;39153;52.680;6.172;2022-10-31T07:54:56;29.30;;;19.63;;
53263;SDS011;39153;52.680;6.172;2022-10-31T07:57:22;36.20;;;21.98;;
53263;SDS011;39153;52.680;6.172;2022-10-31T07:59:48;33.15;;;21.55;;
53263;SDS011;39153;52.680;6.172;2022-10-31T08:02:13;38.35;;;23.80;;
53263;SDS011;39153;52.680;6.172;2022-10-31T08:04:39;36.08;;;23.98;;
53263;SDS011;39153;52.680;6.172;2022-10-31T08:07:04;47.40;;;27.10;;
53263;SDS011;39153;52.680;6.172;2022-10-31T08:09:30;41.83;;;26.70;;
53263;SDS011;39153;52.680;6.172;2022-10-31T08:11:56;47.97;;;27.70;;
53263;SDS011;39153;52.680;6.172;2022-10-31T08:14:21;42.03;;;26.95;;
53263;SDS011;39153;52.680;6.172;2022-10-31T08:16:47;42.10;;;27.30;;
53263;SDS011;39153;52.680;6.172;2022-10-31T08:19:13;43.33;;;27.38;;
53263;SDS011;39153;52.680;6.172;2022-10-31T08:21:39;44.78;;;28.02;;
53263;SDS011;39153;52.680;6.172;2022-10-31T08:24:04;46.35;;;30.80;;
53263;SDS011;39153;52.680;6.172;2022-10-31T08:26:30;54.38;;;31.58;;
53263;SDS011;39153;52.680;6.172;2022-10-31T08:28:56;48.20;;;30.67;;
53263;SDS011;39153;52.680;6.172;2022-10-31T08:31:22;53.53;;;32.45;;
53263;SDS011;39153;52.680;6.172;2022-10-31T08:33:48;53.85;;;33.78;;
53263;SDS011;39153;52.680;6.172;2022-10-31T08:36:13;53.47;;;33.28;;
53263;SDS011;39153;52.680;6.172;2022-10-31T08:38:39;53.85;;;33.33;;
53263;SDS011;39153;52.680;6.172;2022-10-31T08:41:05;55.40;;;34.80;;
53263;SDS011;39153;52.680;6.172;2022-10-31T08:43:30;53.97;;;33.22;;
53263;SDS011;39153;52.680;6.172;2022-10-31T08:45:56;48.58;;;31.92;;
53263;SDS011;39153;52.680;6.172;2022-10-31T08:48:22;54.47;;;31.27;;
53263;SDS011;39153;52.680;6.172;2022-10-31T08:50:47;49.75;;;30.83;;
53263;SDS011;39153;52.680;6.172;2022-10-31T08:53:14;52.83;;;31.70;;
53263;SDS011;39153;52.680;6.172;2022-10-31T08:55:41;53.33;;;32.70;;
53263;SDS011;39153;52.680;6.172;2022-10-31T08:58:14;50.08;;;31.20;;
53263;SDS011;39153;52.680;6.172;2022-10-31T09:00:41;55.75;;;31.08;;
53263;SDS011;39153;52.680;6.172;2022-10-31T09:03:11;52.85;;;32.15;;
53263;SDS011;39153;52.680;6.172;2022-10-31T09:08:08;49.35;;;29.60;;
53263;SDS011;39153;52.680;6.172;2022-10-31T09:10:34;47.13;;;30.00;;
53263;SDS011;39153;52.680;6.172;2022-10-31T09:13:05;45.88;;;29.70;;
53263;SDS011;39153;52.680;6.172;2022-10-31T09:15:43;49.53;;;29.85;;
53263;SDS011;39153;52.680;6.172;2022-10-31T09:18:10;49.53;;;31.23;;
53263;SDS011;39153;52.680;6.172;2022-10-31T09:20:37;51.08;;;32.08;;
53263;SDS011;39153;52.680;6.172;2022-10-31T09:23:05;52.85;;;32.33;;
53263;SDS011;39153;52.680;6.172;2022-10-31T09:25:32;55.65;;;39.15;;
53263;SDS011;39153;52.680;6.172;2022-10-31T09:27:58;56.60;;;31.55;;
53263;SDS011;39153;52.680;6.172;2022-10-31T09:30:25;53.42;;;32.53;;
53263;SDS011;39153;52.680;6.172;2022-10-31T09:32:59;57.22;;;32.25;;
53263;SDS011;39153;52.680;6.172;2022-10-31T09:35:27;51.97;;;37.72;;
53263;SDS011;39153;52.680;6.172;2022-10-31T09:37:53;51.13;;;31.63;;
53263;SDS011;39153;52.680;6.172;2022-10-31T09:40:20;49.85;;;30.92;;
53263;SDS011;39153;52.680;6.172;2022-10-31T09:48:17;51.85;;;34.13;;
53263;SDS011;39153;52.680;6.172;2022-10-31T09:50:58;42.08;;;25.85;;
53263;SDS011;39153;52.680;6.172;2022-10-31T09:56:46;43.42;;;27.23;;
53263;SDS011;39153;52.680;6.172;2022-10-31T09:59:16;48.30;;;28.42;;
53263;SDS011;39153;52.680;6.172;2022-10-31T10:02:00;39.03;;;26.98;;
53263;SDS011;39153;52.680;6.172;2022-10-31T10:04:47;42.25;;;31.50;;
53263;SDS011;39153;52.680;6.172;2022-10-31T10:10:02;41.05;;;31.05;;
53263;SDS011;39153;52.680;6.172;2022-10-31T10:12:59;39.88;;;29.77;;
53263;SDS011;39153;52.680;6.172;2022-10-31T10:18:43;37.05;;;24.95;;
53263;SDS011;39153;52.680;6.172;2022-10-31T10:21:39;36.42;;;26.50;;
53263;SDS011;39153;52.680;6.172;2022-10-31T10:32:12;30.45;;;23.77;;
53263;SDS011;39153;52.680;6.172;2022-10-31T10:34:49;30.73;;;22.77;;
53263;SDS011;39153;52.680;6.172;2022-10-31T10:37:30;33.33;;;24.02;;
53263;SDS011;39153;52.680;6.172;2022-10-31T10:40:17;27.13;;;20.10;;
53263;SDS011;39153;52.680;6.172;2022-10-31T10:45:49;27.38;;;19.80;;
53263;SDS011;39153;52.680;6.172;2022-10-31T10:54:10;22.73;;;16.02;;
53263;SDS011;39153;52.680;6.172;2022-10-31T10:57:05;26.40;;;16.40;;
53263;SDS011;39153;52.680;6.172;2022-10-31T10:59:42;20.55;;;15.63;;
53263;SDS011;39153;52.680;6.172;2022-10-31T11:02:29;19.38;;;14.90;;
53263;SDS011;39153;52.680;6.172;2022-10-31T11:04:58;20.00;;;14.32;;
53263;SDS011;39153;52.680;6.172;2022-10-31T11:07:25;20.63;;;14.15;;
53263;SDS011;39153;52.680;6.172;2022-10-31T11:10:03;17.27;;;12.52;;
53263;SDS011;39153;52.680;6.172;2022-10-31T11:12:38;18.17;;;11.45;;
53263;SDS011;39153;52.680;6.172;2022-10-31T11:15:15;17.20;;;11.02;;
53263;SDS011;39153;52.680;6.172;2022-10-31T11:17:51;14.52;;;10.52;;
53263;SDS011;39153;52.680;6.172;2022-10-31T11:22:45;16.25;;;11.05;;
53263;SDS011;39153;52.680;6.172;2022-10-31T11:25:25;16.23;;;11.32;;
53263;SDS011;39153;52.680;6.172;2022-10-31T11:28:01;16.55;;;11.90;;
53263;SDS011;39153;52.680;6.172;2022-10-31T11:30:28;20.77;;;14.63;;
53263;SDS011;39153;52.680;6.172;2022-10-31T11:32:55;24.60;;;16.60;;
53263;SDS011;39153;52.680;6.172;2022-10-31T11:35:22;20.63;;;16.02;;
53263;SDS011;39153;52.680;6.172;2022-10-31T11:37:50;21.48;;;16.02;;
53263;SDS011;39153;52.680;6.172;2022-10-31T11:40:22;24.10;;;16.38;;
53263;SDS011;39153;52.680;6.172;2022-10-31T11:42:50;22.63;;;16.23;;
53263;SDS011;39153;52.680;6.172;2022-10-31T11:47:50;20.90;;;15.07;;
53263;SDS011;39153;52.680;6.172;2022-10-31T11:50:19;23.75;;;15.38;;
53263;SDS011;39153;52.680;6.172;2022-10-31T11:52:51;18.95;;;13.98;;
53263;SDS011;39153;52.680;6.172;2022-10-31T11:55:35;20.95;;;14.60;;
53263;SDS011;39153;52.680;6.172;2022-10-31T11:58:02;21.30;;;14.65;;
53263;SDS011;39153;52.680;6.172;2022-10-31T12:00:30;21.92;;;15.38;;
53263;SDS011;39153;52.680;6.172;2022-10-31T12:06:00;24.10;;;15.82;;
53263;SDS011;39153;52.680;6.172;2022-10-31T12:08:34;22.40;;;16.25;;
53263;SDS011;39153;52.680;6.172;2022-10-31T12:22:30;18.85;;;15.35;;
53263;SDS011;39153;52.680;6.172;2022-10-31T12:38:31;21.08;;;13.40;;
53263;SDS011;39153;52.680;6.172;2022-10-31T12:44:05;18.15;;;12.52;;
53263;SDS011;39153;52.680;6.172;2022-10-31T12:49:44;17.60;;;13.52;;
53263;SDS011;39153;52.680;6.172;2022-10-31T12:55:14;20.30;;;12.70;;
53263;SDS011;39153;52.680;6.172;2022-10-31T12:58:04;18.50;;;12.52;;
53263;SDS011;39153;52.680;6.172;2022-10-31T13:00:35;18.30;;;12.48;;
53263;SDS011;39153;52.680;6.172;2022-10-31T13:05:56;18.85;;;12.25;;
53263;SDS011;39153;52.680;6.172;2022-10-31T13:08:34;19.92;;;11.57;;
53263;SDS011;39153;52.680;6.172;2022-10-31T13:11:12;16.98;;;10.77;;
53263;SDS011;39153;52.680;6.172;2022-10-31T13:16:30;15.20;;;9.90;;
53263;SDS011;39153;52.680;6.172;2022-10-31T13:19:07;15.85;;;10.48;;
53263;SDS011;39153;52.680;6.172;2022-10-31T13:27:29;16.20;;;10.15;;
53263;SDS011;39153;52.680;6.172;2022-10-31T13:30:15;16.27;;;9.85;;
53263;SDS011;39153;52.680;6.172;2022-10-31T13:35:52;17.50;;;10.73;;
53263;SDS011;39153;52.680;6.172;2022-10-31T13:38:48;16.40;;;10.50;;
53263;SDS011;39153;52.680;6.172;2022-10-31T13:46:50;18.52;;;10.00;;
53263;SDS011;39153;52.680;6.172;2022-10-31T13:54:51;15.75;;;9.82;;
53263;SDS011;39153;52.680;6.172;2022-10-31T14:02:46;19.98;;;12.07;;
53263;SDS011;39153;52.680;6.172;2022-10-31T14:05:24;17.85;;;11.00;;
53263;SDS011;39153;52.680;6.172;2022-10-31T14:07:59;15.63;;;11.27;;
53263;SDS011;39153;52.680;6.172;2022-10-31T14:10:28;16.35;;;11.57;;
53263;SDS011;39153;52.680;6.172;2022-10-31T14:15:52;16.63;;;11.20;;
53263;SDS011;39153;52.680;6.172;2022-10-31T14:18:23;15.15;;;10.68;;
53263;SDS011;39153;52.680;6.172;2022-10-31T14:20:53;16.60;;;9.95;;
53263;SDS011;39153;52.680;6.172;2022-10-31T14:25:54;16.02;;;10.55;;
53263;SDS011;39153;52.680;6.172;2022-10-31T14:28:51;16.20;;;10.57;;
53263;SDS011;39153;52.680;6.172;2022-10-31T14:34:15;17.08;;;11.07;;
53263;SDS011;39153;52.680;6.172;2022-10-31T14:42:32;17.35;;;12.23;;
53263;SDS011;39153;52.680;6.172;2022-10-31T14:52:56;17.50;;;11.43;;
53263;SDS011;39153;52.680;6.172;2022-10-31T14:55:25;20.80;;;11.85;;
53263;SDS011;39153;52.680;6.172;2022-10-31T14:57:53;19.80;;;11.52;;
53263;SDS011;39153;52.680;6.172;2022-10-31T15:00:31;18.05;;;12.43;;
53263;SDS011;39153;52.680;6.172;2022-10-31T15:03:05;19.98;;;12.52;;
53263;SDS011;39153;52.680;6.172;2022-10-31T15:05:40;20.13;;;12.93;;
53263;SDS011;39153;52.680;6.172;2022-10-31T15:08:13;24.48;;;13.38;;
53263;SDS011;39153;52.680;6.172;2022-10-31T15:10:52;18.58;;;12.65;;
53263;SDS011;39153;52.680;6.172;2022-10-31T15:13:18;19.77;;;13.32;;
53263;SDS011;39153;52.680;6.172;2022-10-31T15:15:46;18.63;;;12.20;;
53263;SDS011;39153;52.680;6.172;2022-10-31T15:18:13;21.55;;;13.02;;
53263;SDS011;39153;52.680;6.172;2022-10-31T15:20:42;18.23;;;12.43;;
53263;SDS011;39153;52.680;6.172;2022-10-31T15:23:11;19.65;;;12.45;;
53263;SDS011;39153;52.680;6.172;2022-10-31T15:25:41;19.30;;;13.00;;
53263;SDS011;39153;52.680;6.172;2022-10-31T15:28:14;20.13;;;13.90;;
53263;SDS011;39153;52.680;6.172;2022-10-31T15:30:49;21.23;;;12.88;;
53263;SDS011;39153;52.680;6.172;2022-10-31T15:33:20;19.30;;;13.82;;
53263;SDS011;39153;52.680;6.172;2022-10-31T15:35:54;19.55;;;13.52;;
53263;SDS011;39153;52.680;6.172;2022-10-31T15:38:21;21.80;;;14.57;;
53263;SDS011;39153;52.680;6.172;2022-10-31T15:40:51;20.58;;;13.93;;
53263;SDS011;39153;52.680;6.172;2022-10-31T15:43:44;20.27;;;13.65;;
53263;SDS011;39153;52.680;6.172;2022-10-31T15:46:12;22.60;;;14.65;;
53263;SDS011;39153;52.680;6.172;2022-10-31T15:48:37;23.42;;;15.75;;
53263;SDS011;39153;52.680;6.172;2022-10-31T15:51:05;20.73;;;14.48;;
53263;SDS011;39153;52.680;6.172;2022-10-31T15:56:08;21.15;;;15.10;;
53263;SDS011;39153;52.680;6.172;2022-10-31T15:58:46;21.23;;;14.60;;
53263;SDS011;39153;52.680;6.172;2022-10-31T16:01:24;20.00;;;14.48;;
53263;SDS011;39153;52.680;6.172;2022-10-31T16:03:58;19.20;;;13.77;;
53263;SDS011;39153;52.680;6.172;2022-10-31T16:06:45;19.48;;;13.65;;
53263;SDS011;39153;52.680;6.172;2022-10-31T16:09:24;20.58;;;14.23;;
53263;SDS011;39153;52.680;6.172;2022-10-31T16:11:50;21.60;;;13.23;;
53263;SDS011;39153;52.680;6.172;2022-10-31T16:14:17;21.15;;;14.25;;
53263;SDS011;39153;52.680;6.172;2022-10-31T16:16:48;22.42;;;15.25;;
53263;SDS011;39153;52.680;6.172;2022-10-31T16:19:31;18.98;;;13.93;;
53263;SDS011;39153;52.680;6.172;2022-10-31T16:22:06;19.33;;;14.20;;
53263;SDS011;39153;52.680;6.172;2022-10-31T16:24:39;21.75;;;14.02;;
53263;SDS011;39153;52.680;6.172;2022-10-31T16:27:17;19.92;;;14.27;;
53263;SDS011;39153;52.680;6.172;2022-10-31T16:29:43;21.73;;;15.20;;
53263;SDS011;39153;52.680;6.172;2022-10-31T16:34:58;19.08;;;13.52;;
53263;SDS011;39153;52.680;6.172;2022-10-31T16:37:37;20.17;;;13.75;;
53263;SDS011;39153;52.680;6.172;2022-10-31T16:40:03;21.45;;;13.77;;
53263;SDS011;39153;52.680;6.172;2022-10-31T16:42:29;21.17;;;14.57;;
53263;SDS011;39153;52.680;6.172;2022-10-31T16:44:55;19.75;;;15.10;;
53263;SDS011;39153;52.680;6.172;2022-10-31T16:47:21;21.23;;;13.57;;
53263;SDS011;39153;52.680;6.172;2022-10-31T16:49:47;21.27;;;15.02;;
53263;SDS011;39153;52.680;6.172;2022-10-31T16:52:14;21.75;;;14.27;;
53263;SDS011;39153;52.680;6.172;2022-10-31T16:54:43;22.80;;;14.95;;
53263;SDS011;39153;52.680;6.172;2022-10-31T16:57:12;24.05;;;14.90;;
53263;SDS011;39153;52.680;6.172;2022-10-31T17:02:13;21.85;;;13.75;;
53263;SDS011;39153;52.680;6.172;2022-10-31T17:04:40;21.40;;;14.77;;
53263;SDS011;39153;52.680;6.172;2022-10-31T17:07:06;20.73;;;14.27;;
53263;SDS011;39153;52.680;6.172;2022-10-31T17:09:32;19.27;;;13.93;;
53263;SDS011;39153;52.680;6.172;2022-10-31T17:11:57;20.65;;;14.00;;
53263;SDS011;39153;52.680;6.172;2022-10-31T17:14:24;20.02;;;13.63;;
53263;SDS011;39153;52.680;6.172;2022-10-31T17:16:50;20.75;;;14.43;;
53263;SDS011;39153;52.680;6.172;2022-10-31T17:19:16;19.55;;;14.52;;
53263;SDS011;39153;52.680;6.172;2022-10-31T17:21:41;22.85;;;15.40;;
53263;SDS011;39153;52.680;6.172;2022-10-31T17:24:09;24.83;;;15.63;;
53263;SDS011;39153;52.680;6.172;2022-10-31T17:26:38;20.05;;;14.15;;
53263;SDS011;39153;52.680;6.172;2022-10-31T17:29:04;21.73;;;15.85;;
53263;SDS011;39153;52.680;6.172;2022-10-31T17:31:30;23.73;;;15.70;;
53263;SDS011;39153;52.680;6.172;2022-10-31T17:33:57;23.67;;;15.43;;